createdAt,value
2018-07-17T00:00:14.429Z,11.73
2018-07-17T00:02:42.563Z,10.67
2018-07-17T00:05:10.751Z,11.90
2018-07-17T00:07:38.659Z,12.53
2018-07-17T00:10:07.361Z,12.33
2018-07-17T00:12:35.553Z,11.93
2018-07-17T00:15:04.106Z,10.67
2018-07-17T00:17:32.484Z,11.67
2018-07-17T00:20:00.630Z,13.07
2018-07-17T00:22:28.806Z,10.47
2018-07-17T00:24:56.983Z,11.40
2018-07-17T00:27:25.139Z,11.83
2018-07-17T00:29:53.286Z,14.00
2018-07-17T00:32:21.435Z,12.50
2018-07-17T00:34:49.592Z,14.77
2018-07-17T00:37:17.746Z,12.17
2018-07-17T00:39:45.907Z,13.07
2018-07-17T00:42:14.085Z,13.83
2018-07-17T00:44:42.246Z,13.20
2018-07-17T00:47:10.537Z,12.97
2018-07-17T00:49:38.680Z,13.33
2018-07-17T00:52:06.906Z,15.30
2018-07-17T00:54:35.043Z,13.90
2018-07-17T00:57:03.199Z,14.97
2018-07-17T00:59:31.337Z,15.37
2018-07-17T01:02:04.956Z,15.27
2018-07-17T01:04:38.624Z,16.93
2018-07-17T01:07:12.222Z,15.00
2018-07-17T01:09:45.706Z,15.17
2018-07-17T01:12:13.141Z,14.33
2018-07-17T01:15:05.653Z,15.93
2018-07-17T01:17:35.166Z,13.73
2018-07-17T01:20:03.322Z,13.27
2018-07-17T01:22:31.454Z,15.63
2018-07-17T01:24:59.597Z,17.70
2018-07-17T01:27:27.759Z,18.13
2018-07-17T01:29:55.913Z,16.53
2018-07-17T01:32:24.043Z,17.97
2018-07-17T01:34:52.194Z,15.97
2018-07-17T01:37:20.322Z,19.50
2018-07-17T01:39:48.455Z,19.93
2018-07-17T01:42:16.594Z,22.40
2018-07-17T01:44:44.750Z,19.13
2018-07-17T01:47:12.891Z,22.83
2018-07-17T01:49:41.039Z,20.33
2018-07-17T01:52:09.170Z,18.63
2018-07-17T01:54:37.320Z,17.43
2018-07-17T01:57:05.648Z,17.23
2018-07-17T01:59:33.790Z,19.23
2018-07-17T02:02:01.934Z,19.43
2018-07-17T02:04:30.063Z,18.73
2018-07-17T02:06:58.218Z,23.00
2018-07-17T02:09:26.360Z,18.43
2018-07-17T02:11:54.478Z,20.87
2018-07-17T02:14:22.620Z,18.97
2018-07-17T02:16:50.776Z,19.03
2018-07-17T02:19:18.899Z,23.20
2018-07-17T02:21:47.054Z,22.33
2018-07-17T02:24:15.183Z,22.07
2018-07-17T02:26:43.323Z,22.90
2018-07-17T02:29:11.222Z,14.83
2018-07-17T02:31:39.378Z,13.50
2018-07-17T02:34:07.540Z,17.23
2018-07-17T02:36:35.719Z,14.43
2018-07-17T02:39:03.872Z,13.60
2018-07-17T02:41:32.006Z,13.67
2018-07-17T02:44:00.141Z,12.43
2018-07-17T02:46:28.280Z,15.27
2018-07-17T02:48:56.428Z,15.17
2018-07-17T02:51:24.587Z,14.70
2018-07-17T02:53:52.713Z,13.47
2018-07-17T02:56:20.867Z,12.83
2018-07-17T02:58:49.023Z,13.93
2018-07-17T03:01:17.167Z,13.30
2018-07-17T03:03:45.317Z,14.00
2018-07-17T03:06:13.461Z,16.00
2018-07-17T03:08:41.591Z,14.17
2018-07-17T03:11:09.743Z,14.20
2018-07-17T03:13:37.877Z,18.03
2018-07-17T03:16:06.019Z,13.67
2018-07-17T03:18:34.173Z,13.30
2018-07-17T03:21:02.347Z,13.63
2018-07-17T03:23:30.504Z,12.90
2018-07-17T03:25:58.647Z,13.00
2018-07-17T03:28:26.779Z,17.77
2018-07-17T03:30:54.921Z,15.43
2018-07-17T03:33:23.119Z,15.67
2018-07-17T03:35:52.337Z,15.73
2018-07-17T03:38:20.487Z,16.20
2018-07-17T03:40:48.704Z,16.47
2018-07-17T03:43:16.855Z,18.07
2018-07-17T03:45:45.043Z,16.97
2018-07-17T03:48:13.262Z,20.00
2018-07-17T03:50:41.403Z,18.07
2018-07-17T03:53:09.552Z,17.03
2018-07-17T03:55:37.699Z,18.53
2018-07-17T03:58:05.851Z,19.53
2018-07-17T04:00:34.033Z,21.17
2018-07-17T04:03:03.033Z,19.53
2018-07-17T04:05:31.200Z,20.17
2018-07-17T04:07:59.364Z,18.63
2018-07-17T04:10:28.532Z,18.40
2018-07-17T04:12:56.739Z,17.10
2018-07-17T04:15:24.920Z,18.57
2018-07-17T04:17:53.088Z,16.70
2018-07-17T04:20:21.267Z,16.40
2018-07-17T04:22:49.412Z,18.03
2018-07-17T04:25:17.583Z,15.93
2018-07-17T04:27:45.749Z,15.90
2018-07-17T04:30:14.071Z,12.83
2018-07-17T04:32:42.330Z,14.10
2018-07-17T04:35:10.506Z,12.70
2018-07-17T04:37:38.695Z,14.07
2018-07-17T04:40:06.880Z,15.50
2018-07-17T04:42:35.066Z,12.57
2018-07-17T04:45:03.227Z,12.57
2018-07-17T04:47:31.396Z,12.33
2018-07-17T04:49:59.571Z,11.57
2018-07-17T04:52:27.710Z,10.40
2018-07-17T04:54:55.897Z,11.07
2018-07-17T04:57:24.071Z,8.57
2018-07-17T04:59:52.324Z,10.17
2018-07-17T05:02:20.530Z,8.00
2018-07-17T05:04:48.676Z,12.13
2018-07-17T05:07:16.842Z,7.67
2018-07-17T05:09:44.999Z,9.67
2018-07-17T05:12:13.156Z,7.57
2018-07-17T05:14:41.291Z,6.87
2018-07-17T05:17:09.565Z,6.07
2018-07-17T05:19:37.734Z,6.03
2018-07-17T05:22:05.862Z,6.60
2018-07-17T05:24:34.013Z,6.10
2018-07-17T05:27:02.154Z,7.23
2018-07-17T05:29:30.278Z,6.40
2018-07-17T05:31:58.416Z,6.53
2018-07-17T05:34:26.580Z,6.30
2018-07-17T05:36:54.767Z,7.93
2018-07-17T05:39:23.036Z,6.90
2018-07-17T05:41:51.173Z,6.50
2018-07-17T05:44:19.357Z,7.17
2018-07-17T05:46:47.526Z,6.10
2018-07-17T05:49:15.655Z,6.03
2018-07-17T05:51:43.817Z,7.47
2018-07-17T05:54:11.942Z,6.00
2018-07-17T05:56:40.098Z,6.80
2018-07-17T05:59:08.238Z,6.50
2018-07-17T06:01:36.371Z,6.80
2018-07-17T06:04:04.551Z,8.17
2018-07-17T06:06:32.727Z,5.87
2018-07-17T06:09:00.865Z,6.57
2018-07-17T06:11:29.003Z,6.07
2018-07-17T06:13:57.219Z,6.20
2018-07-17T06:16:25.343Z,6.77
2018-07-17T06:18:53.623Z,5.97
2018-07-17T06:21:21.812Z,6.73
2018-07-17T06:23:49.934Z,6.17
2018-07-17T06:26:18.046Z,5.27
2018-07-17T06:28:46.196Z,5.07
2018-07-17T06:31:14.346Z,6.20
2018-07-17T06:33:42.489Z,6.00
2018-07-17T06:36:10.624Z,5.93
2018-07-17T06:38:38.767Z,5.60
2018-07-17T06:41:06.943Z,5.73
2018-07-17T06:43:35.103Z,5.43
2018-07-17T06:46:03.257Z,5.93
2018-07-17T06:48:31.405Z,6.70
2018-07-17T06:50:59.696Z,6.00
2018-07-17T06:53:27.839Z,7.43
2018-07-17T06:55:56.006Z,6.57
2018-07-17T06:58:24.368Z,6.87
2018-07-17T07:00:52.521Z,6.40
2018-07-17T07:03:20.667Z,6.83
2018-07-17T07:05:48.879Z,6.20
2018-07-17T07:08:17.287Z,6.90
2018-07-17T07:10:45.534Z,5.67
2018-07-17T07:13:13.714Z,6.13
2018-07-17T07:15:41.846Z,5.70
2018-07-17T07:18:09.991Z,6.90
2018-07-17T07:20:38.246Z,6.07
2018-07-17T07:23:06.519Z,6.67
2018-07-17T07:25:34.711Z,6.70
2018-07-17T07:28:02.921Z,5.87
2018-07-17T07:30:31.061Z,6.17
2018-07-17T07:32:59.199Z,6.47
2018-07-17T07:35:27.351Z,7.70
2018-07-17T07:37:55.578Z,5.53
2018-07-17T07:40:23.738Z,6.17
2018-07-17T07:42:51.972Z,8.43
2018-07-17T07:45:20.066Z,6.03
2018-07-17T07:47:48.249Z,6.40
2018-07-17T07:50:16.478Z,6.13
2018-07-17T07:52:44.750Z,5.77
2018-07-17T07:55:12.881Z,6.03
2018-07-17T07:57:41.061Z,5.50
2018-07-17T08:00:09.208Z,6.57
2018-07-17T08:02:37.383Z,6.00
2018-07-17T08:05:05.849Z,6.60
2018-07-17T08:07:34.134Z,6.23
2018-07-17T08:10:02.314Z,6.40
2018-07-17T08:12:30.483Z,7.43
2018-07-17T08:14:58.646Z,8.97
2018-07-17T08:17:26.813Z,7.70
2018-07-17T08:20:05.047Z,6.50
2018-07-17T08:22:33.219Z,7.83
2018-07-17T08:25:01.393Z,6.90
2018-07-17T08:27:29.584Z,7.80
2018-07-17T08:29:57.746Z,7.17
2018-07-17T08:32:25.937Z,7.77
2018-07-17T08:34:54.091Z,7.00
2018-07-17T08:37:22.239Z,6.67
2018-07-17T08:39:50.447Z,6.73
2018-07-17T08:42:18.599Z,6.67
2018-07-17T08:44:46.875Z,6.93
2018-07-17T08:47:15.572Z,6.07
2018-07-17T08:49:43.756Z,5.73
2018-07-17T08:52:11.940Z,7.03
2018-07-17T08:54:40.254Z,6.33
2018-07-17T08:57:08.239Z,6.00
2018-07-17T08:59:36.617Z,7.30
2018-07-17T09:02:04.799Z,6.20
2018-07-17T09:04:32.954Z,8.00
2018-07-17T09:07:01.085Z,6.30
2018-07-17T09:09:29.242Z,5.60
2018-07-17T09:11:57.438Z,6.17
2018-07-17T09:14:25.561Z,6.30
2018-07-17T09:16:53.706Z,5.97
2018-07-17T09:19:21.873Z,6.57
2018-07-17T09:21:50.017Z,6.77
2018-07-17T09:24:18.154Z,6.30
2018-07-17T09:26:46.339Z,6.60
2018-07-17T09:29:14.529Z,6.67
2018-07-17T09:31:42.682Z,5.73
2018-07-17T09:34:10.845Z,6.23
2018-07-17T09:36:38.991Z,5.50
2018-07-17T09:39:08.356Z,6.23
2018-07-17T09:41:36.555Z,5.63
2018-07-17T09:44:04.778Z,5.53
2018-07-17T09:46:33.029Z,5.77
2018-07-17T09:49:01.159Z,6.83
2018-07-17T09:51:29.313Z,7.30
2018-07-17T09:53:57.510Z,7.70
2018-07-17T09:56:25.693Z,5.67
2018-07-17T09:58:53.844Z,5.23
2018-07-17T10:01:27.354Z,5.63
2018-07-17T10:03:55.494Z,6.90
2018-07-17T10:06:23.629Z,5.70
2018-07-17T10:08:51.772Z,6.83
2018-07-17T10:11:20.190Z,5.07
2018-07-17T10:13:48.391Z,7.03
2018-07-17T10:16:16.536Z,7.77
2018-07-17T10:18:44.686Z,7.00
2018-07-17T10:21:12.815Z,7.87
2018-07-17T10:23:41.015Z,7.63
2018-07-17T10:26:09.167Z,7.63
2018-07-17T10:28:37.334Z,7.23
2018-07-17T10:31:05.482Z,7.27
2018-07-17T10:33:33.645Z,6.57
2018-07-17T10:36:01.815Z,7.03
2018-07-17T10:38:30.012Z,6.23
2018-07-17T10:40:58.173Z,6.03
2018-07-17T10:43:26.319Z,6.67
2018-07-17T10:45:54.630Z,8.87
2018-07-17T10:48:22.807Z,7.83
2018-07-17T10:50:50.948Z,6.13
2018-07-17T10:53:19.121Z,6.73
2018-07-17T10:55:47.267Z,8.57
2018-07-17T10:58:15.508Z,6.77
2018-07-17T11:00:43.710Z,5.20
2018-07-17T11:03:11.895Z,10.23
2018-07-17T11:05:40.047Z,9.23
2018-07-17T11:08:08.203Z,6.27
2018-07-17T11:10:36.359Z,8.27
2018-07-17T11:13:04.555Z,7.63
2018-07-17T11:15:32.715Z,5.70
2018-07-17T11:18:00.871Z,6.00
2018-07-17T11:20:29.081Z,6.53
2018-07-17T11:22:57.235Z,5.23
2018-07-17T11:25:25.476Z,6.37
2018-07-17T11:27:53.658Z,7.00
2018-07-17T11:30:21.875Z,5.17
2018-07-17T11:32:50.027Z,8.60
2018-07-17T11:35:18.186Z,4.97
2018-07-17T11:37:46.308Z,5.93
2018-07-17T11:40:14.612Z,6.20
2018-07-17T11:42:42.853Z,4.63
2018-07-17T11:45:10.992Z,5.43
2018-07-17T11:47:39.163Z,4.27
2018-07-17T11:50:07.687Z,4.50
2018-07-17T11:52:35.967Z,4.97
2018-07-17T11:55:04.125Z,5.13
2018-07-17T11:57:32.290Z,7.03
2018-07-17T12:03:00.856Z,5.03
2018-07-17T12:05:29.027Z,2.37
2018-07-17T12:07:57.202Z,3.53
2018-07-17T12:10:25.346Z,3.20
2018-07-17T12:12:53.550Z,3.50
2018-07-17T12:15:21.674Z,3.43
2018-07-17T12:17:49.830Z,2.73
2018-07-17T12:20:18.011Z,3.57
2018-07-17T12:22:46.148Z,5.70
2018-07-17T12:25:14.302Z,2.67
2018-07-17T12:27:42.552Z,3.50
2018-07-17T12:30:10.714Z,4.00
2018-07-17T12:32:38.940Z,3.93
2018-07-17T12:35:07.142Z,3.00
2018-07-17T12:37:35.662Z,4.87
2018-07-17T12:40:04.108Z,3.17
2018-07-17T12:42:32.251Z,2.67
2018-07-17T12:45:00.415Z,2.83
2018-07-17T12:47:28.547Z,3.67
2018-07-17T12:49:56.874Z,2.90
2018-07-17T12:52:24.935Z,5.63
2018-07-17T12:54:53.081Z,3.70
2018-07-17T12:57:21.268Z,3.73
2018-07-17T12:59:49.441Z,3.87
2018-07-17T13:02:17.611Z,3.37
2018-07-17T13:04:45.792Z,4.33
2018-07-17T13:07:13.958Z,3.20
2018-07-17T13:09:42.259Z,3.87
2018-07-17T13:12:10.478Z,7.00
2018-07-17T13:14:38.635Z,5.70
2018-07-17T13:17:20.747Z,7.70
2018-07-17T13:19:48.886Z,5.33
2018-07-17T13:22:17.746Z,2.57
2018-07-17T13:24:45.996Z,4.97
2018-07-17T13:27:14.199Z,6.80
2018-07-17T13:29:42.370Z,3.03
2018-07-17T13:32:10.759Z,3.50
2018-07-17T13:34:39.133Z,6.43
2018-07-17T13:37:07.343Z,5.20
2018-07-17T13:39:35.592Z,2.97
2018-07-17T13:42:04.269Z,4.83
2018-07-17T13:44:32.478Z,2.37
2018-07-17T13:47:00.778Z,3.33
2018-07-17T13:49:28.937Z,3.90
2018-07-17T13:51:57.140Z,3.77
2018-07-17T13:54:25.317Z,3.77
2018-07-17T13:56:53.522Z,2.83
2018-07-17T13:59:21.702Z,2.40
2018-07-17T14:01:49.867Z,4.17
2018-07-17T14:04:18.079Z,3.63
2018-07-17T14:06:46.234Z,4.00
2018-07-17T14:09:14.417Z,4.23
2018-07-17T14:11:42.588Z,2.40
2018-07-17T14:14:10.742Z,2.43
2018-07-17T14:16:38.919Z,3.23
2018-07-17T14:19:07.172Z,3.30
2018-07-17T14:21:35.342Z,3.50
2018-07-17T14:24:03.552Z,3.63
2018-07-17T14:26:31.860Z,2.97
2018-07-17T14:29:00.081Z,3.80
2018-07-17T14:31:28.310Z,3.87
2018-07-17T14:33:56.571Z,5.53
2018-07-17T14:36:24.890Z,3.77
2018-07-17T14:38:53.070Z,5.07
2018-07-17T14:41:21.291Z,3.33
2018-07-17T14:43:49.509Z,3.57
2018-07-17T14:46:17.764Z,2.57
2018-07-17T14:48:46.096Z,4.67
2018-07-17T14:51:14.731Z,2.70
2018-07-17T14:53:42.924Z,3.40
2018-07-17T14:56:11.135Z,3.00
2018-07-17T14:58:39.342Z,3.33
2018-07-17T15:01:07.251Z,3.73
2018-07-17T15:03:36.567Z,3.47
2018-07-17T15:06:04.834Z,3.20
2018-07-17T15:08:33.002Z,3.30
2018-07-17T15:11:01.178Z,3.07
2018-07-17T15:13:29.365Z,3.57
2018-07-17T15:15:58.343Z,3.47
2018-07-17T15:18:26.454Z,3.43
2018-07-17T15:20:54.641Z,3.63
2018-07-17T15:23:23.714Z,3.30
2018-07-17T15:25:51.872Z,3.40
2018-07-17T15:28:20.035Z,3.80
2018-07-17T15:30:48.230Z,2.90
2018-07-17T15:33:16.412Z,3.40
2018-07-17T15:35:44.724Z,3.17
2018-07-17T15:38:13.545Z,3.53
2018-07-17T15:40:41.756Z,3.47
2018-07-17T15:43:09.916Z,4.23
2018-07-17T15:45:38.105Z,4.97
2018-07-17T15:48:06.386Z,4.03
2018-07-17T15:50:34.299Z,3.87
2018-07-17T15:53:02.679Z,5.77
2018-07-17T15:55:30.862Z,3.63
2018-07-17T15:57:59.619Z,9.40
2018-07-17T16:00:27.804Z,3.43
2018-07-17T16:02:55.929Z,4.53
2018-07-17T16:05:24.102Z,6.57
2018-07-17T16:07:52.227Z,3.10
2018-07-17T16:10:20.386Z,3.97
2018-07-17T16:12:48.538Z,4.20
2018-07-17T16:15:16.759Z,3.23
2018-07-17T16:17:44.883Z,3.30
2018-07-17T16:20:13.112Z,3.53
2018-07-17T16:22:41.272Z,4.70
2018-07-17T16:25:09.442Z,4.37
2018-07-17T16:27:37.689Z,3.33
2018-07-17T16:30:06.606Z,3.20
2018-07-17T16:32:34.755Z,3.03
2018-07-17T16:35:02.933Z,3.87
2018-07-17T16:37:31.128Z,3.60
2018-07-17T16:39:59.278Z,3.90
2018-07-17T16:42:27.462Z,3.77
2018-07-17T16:44:55.636Z,6.23
2018-07-17T16:47:23.862Z,4.33
2018-07-17T16:49:52.095Z,3.67
2018-07-17T16:52:20.248Z,5.33
2018-07-17T16:54:48.504Z,4.37
2018-07-17T16:57:16.680Z,3.53
2018-07-17T16:59:44.894Z,4.90
2018-07-17T17:02:13.074Z,4.17
2018-07-17T17:04:41.879Z,5.73
2018-07-17T17:07:10.028Z,5.90
2018-07-17T17:09:38.211Z,5.27
2018-07-17T17:12:06.705Z,3.23
2018-07-17T17:14:34.891Z,3.07
2018-07-17T17:17:03.051Z,3.00
2018-07-17T17:19:31.763Z,3.63
2018-07-17T17:21:59.950Z,3.83
2018-07-17T17:24:28.261Z,6.60
2018-07-17T17:26:56.292Z,6.13
2018-07-17T17:29:24.637Z,3.40
2018-07-17T17:31:52.504Z,5.80
2018-07-17T17:34:20.668Z,3.30
2018-07-17T17:36:49.112Z,9.13
2018-07-17T17:39:17.366Z,4.07
2018-07-17T17:41:45.522Z,3.83
2018-07-17T17:44:13.686Z,4.10
2018-07-17T17:46:41.861Z,4.57
2018-07-17T17:49:10.037Z,3.40
2018-07-17T17:51:38.231Z,4.17
2018-07-17T17:54:06.443Z,3.60
2018-07-17T17:56:34.695Z,3.10
2018-07-17T17:59:02.905Z,3.50
2018-07-17T18:01:31.084Z,3.70
2018-07-17T18:03:59.275Z,5.00
2018-07-17T18:06:27.477Z,4.93
2018-07-17T18:08:55.660Z,4.43
2018-07-17T18:11:23.854Z,4.37
2018-07-17T18:13:52.009Z,3.80
2018-07-17T18:16:20.183Z,3.13
2018-07-17T18:18:48.414Z,4.87
2018-07-17T18:21:16.651Z,3.40
2018-07-17T18:23:44.846Z,3.47
2018-07-17T18:26:13.030Z,4.03
2018-07-17T18:28:41.208Z,3.10
2018-07-17T18:31:09.391Z,5.13
2018-07-17T18:33:37.583Z,3.50
2018-07-17T18:36:05.742Z,4.40
2018-07-17T18:38:33.954Z,3.37
2018-07-17T18:41:02.130Z,2.87
2018-07-17T18:43:30.265Z,3.47
2018-07-17T18:45:58.418Z,5.20
2018-07-17T18:48:26.598Z,3.83
2018-07-17T18:50:54.509Z,3.23
2018-07-17T18:53:22.755Z,5.90
2018-07-17T18:55:50.994Z,4.73
2018-07-17T18:58:19.171Z,5.57
2018-07-17T19:00:47.366Z,3.70
2018-07-17T19:03:16.142Z,4.77
2018-07-17T19:05:44.278Z,4.30
2018-07-17T19:08:12.442Z,3.90
2018-07-17T19:10:40.614Z,3.87
2018-07-17T19:13:08.765Z,3.30
2018-07-17T19:15:36.922Z,5.67
2018-07-17T19:18:05.157Z,4.57
2018-07-17T19:20:33.334Z,3.90
2018-07-17T19:23:01.505Z,3.50
2018-07-17T19:25:29.716Z,4.27
2018-07-17T19:27:57.952Z,3.90
2018-07-17T19:30:26.126Z,4.93
2018-07-17T19:32:54.338Z,11.83
2018-07-17T19:35:22.550Z,5.17
2018-07-17T19:37:50.746Z,3.80
2018-07-17T19:40:19.066Z,5.33
2018-07-17T19:42:47.301Z,3.50
2018-07-17T19:45:16.430Z,3.93
2018-07-17T19:47:44.607Z,4.20
2018-07-17T19:50:12.743Z,4.77
2018-07-17T19:52:40.961Z,7.90
2018-07-17T19:55:09.129Z,4.50
2018-07-17T19:57:37.295Z,7.07
2018-07-17T20:00:06.175Z,4.83
2018-07-17T20:02:34.370Z,4.77
2018-07-17T20:05:02.572Z,6.80
2018-07-17T20:07:30.750Z,5.97
2018-07-17T20:09:58.967Z,4.50
2018-07-17T20:12:27.192Z,7.00
2018-07-17T20:14:55.374Z,4.47
2018-07-17T20:17:23.565Z,6.90
2018-07-17T20:19:51.701Z,5.20
2018-07-17T20:22:19.824Z,4.50
2018-07-17T20:24:48.016Z,5.67
2018-07-17T20:27:16.192Z,6.07
2018-07-17T20:29:44.369Z,5.27
2018-07-17T20:32:12.578Z,6.23
2018-07-17T20:34:40.702Z,4.50
2018-07-17T20:37:08.873Z,11.03
2018-07-17T20:39:37.028Z,5.03
2018-07-17T20:42:05.254Z,8.20
2018-07-17T20:44:33.416Z,4.37
2018-07-17T20:47:01.614Z,7.00
2018-07-17T20:49:29.778Z,6.17
2018-07-17T20:51:57.995Z,6.73
2018-07-17T20:54:26.192Z,7.73
2018-07-17T20:56:55.091Z,8.80
2018-07-17T20:59:23.303Z,6.70
2018-07-17T21:01:52.104Z,6.07
2018-07-17T21:04:20.521Z,5.83
2018-07-17T21:06:48.706Z,5.53
2018-07-17T21:09:16.851Z,6.70
2018-07-17T21:11:45.007Z,5.60
2018-07-17T21:14:13.286Z,10.93
2018-07-17T21:16:41.594Z,16.00
2018-07-17T21:19:09.789Z,5.73
2018-07-17T21:21:37.944Z,6.23
2018-07-17T21:24:06.120Z,7.77
2018-07-17T21:26:34.299Z,5.50
2018-07-17T21:29:02.472Z,7.40
2018-07-17T21:31:30.389Z,5.50
2018-07-17T21:33:58.642Z,5.83
2018-07-17T21:36:26.816Z,6.57
2018-07-17T21:38:54.985Z,4.70
2018-07-17T21:41:23.181Z,5.10
2018-07-17T21:43:51.339Z,5.63
2018-07-17T21:46:19.492Z,6.83
2018-07-17T21:48:47.664Z,5.07
2018-07-17T21:51:15.818Z,5.23
2018-07-17T21:53:43.994Z,5.57
2018-07-17T21:56:12.232Z,5.40
2018-07-17T21:58:40.350Z,6.40
2018-07-17T22:01:08.559Z,6.27
2018-07-17T22:03:36.706Z,6.50
2018-07-17T22:06:04.864Z,5.33
2018-07-17T22:08:33.318Z,5.20
2018-07-17T22:11:01.536Z,6.00
2018-07-17T22:13:29.727Z,6.77
2018-07-17T22:15:57.897Z,6.57
2018-07-17T22:18:27.147Z,6.50
2018-07-17T22:20:55.338Z,5.57
2018-07-17T22:23:23.524Z,6.40
2018-07-17T22:25:51.683Z,5.00
2018-07-17T22:28:19.919Z,5.23
2018-07-17T22:30:48.092Z,5.80
2018-07-17T22:33:17.246Z,5.13
2018-07-17T22:35:45.511Z,5.73
2018-07-17T22:38:14.054Z,5.93
2018-07-17T22:40:42.276Z,5.13
2018-07-17T22:43:10.465Z,5.07
2018-07-17T22:45:38.663Z,9.87
2018-07-17T22:48:06.860Z,6.57
2018-07-17T22:50:35.019Z,6.13
2018-07-17T22:53:03.739Z,6.83
2018-07-17T22:55:31.893Z,5.27
2018-07-17T22:58:00.133Z,5.57
2018-07-17T23:00:28.296Z,6.30
2018-07-17T23:02:56.443Z,4.93
2018-07-17T23:05:24.603Z,5.23
2018-07-17T23:07:52.790Z,6.80
2018-07-17T23:10:20.935Z,4.77
2018-07-17T23:12:49.119Z,6.17
2018-07-17T23:15:17.034Z,8.47
2018-07-17T23:17:45.854Z,5.40
2018-07-17T23:20:14.029Z,5.47
2018-07-17T23:23:03.360Z,5.30
2018-07-17T23:25:32.626Z,5.63
2018-07-17T23:28:01.457Z,7.70
2018-07-17T23:30:30.053Z,6.67
2018-07-17T23:32:58.826Z,6.30
2018-07-17T23:35:26.989Z,6.10
2018-07-17T23:37:55.148Z,5.70
2018-07-17T23:40:23.695Z,6.40
2018-07-17T23:42:51.867Z,6.57
2018-07-17T23:45:20.065Z,5.47
2018-07-17T23:47:49.029Z,7.63
2018-07-17T23:50:17.292Z,6.00
2018-07-17T23:52:46.182Z,7.67
2018-07-17T23:55:14.439Z,8.13
2018-07-17T23:57:42.648Z,6.37
